createdAt,value
2017-08-22T00:00:23.227Z,15.20
2017-08-22T00:02:49.536Z,15.40
2017-08-22T00:05:15.832Z,15.50
2017-08-22T00:07:42.125Z,15.50
2017-08-22T00:10:09.180Z,15.70
2017-08-22T00:12:35.468Z,15.70
2017-08-22T00:15:01.992Z,15.70
2017-08-22T00:17:28.281Z,15.80
2017-08-22T00:19:54.582Z,15.90
2017-08-22T00:22:20.877Z,16.00
2017-08-22T00:24:47.199Z,15.90
2017-08-22T00:27:13.483Z,15.90
2017-08-22T00:29:39.773Z,15.90
2017-08-22T00:32:06.073Z,15.80
2017-08-22T00:34:32.384Z,15.80
2017-08-22T00:36:58.696Z,15.60
2017-08-22T00:39:24.967Z,15.40
2017-08-22T00:41:51.264Z,15.20
2017-08-22T00:44:17.556Z,15.10
2017-08-22T00:46:44.054Z,14.90
2017-08-22T00:49:10.444Z,14.80
2017-08-22T00:51:36.776Z,14.80
2017-08-22T00:54:03.089Z,14.70
2017-08-22T00:56:29.364Z,14.60
2017-08-22T00:58:55.664Z,14.50
2017-08-22T01:01:22.012Z,14.40
2017-08-22T01:03:48.375Z,14.40
2017-08-22T01:06:14.790Z,14.40
2017-08-22T01:08:41.172Z,14.30
2017-08-22T01:11:07.500Z,14.30
2017-08-22T01:13:33.795Z,14.20
2017-08-22T01:16:00.089Z,14.10
2017-08-22T01:18:26.400Z,14.10
2017-08-22T01:20:52.695Z,14.10
2017-08-22T01:23:18.971Z,14.00
2017-08-22T01:25:45.277Z,14.00
2017-08-22T01:28:11.572Z,14.00
2017-08-22T01:30:37.839Z,13.90
2017-08-22T01:33:04.161Z,13.80
2017-08-22T01:35:30.446Z,13.70
2017-08-22T01:37:56.747Z,13.70
2017-08-22T01:40:23.108Z,13.70
2017-08-22T01:42:49.388Z,13.70
2017-08-22T01:45:15.692Z,13.70
2017-08-22T01:47:42.096Z,13.60
2017-08-22T01:50:08.408Z,13.60
2017-08-22T01:52:34.694Z,13.60
2017-08-22T01:55:01.008Z,13.60
2017-08-22T01:57:27.307Z,13.50
2017-08-22T01:59:53.589Z,13.50
2017-08-22T02:02:19.935Z,13.60
2017-08-22T02:04:46.224Z,13.50
2017-08-22T02:07:12.532Z,13.50
2017-08-22T02:09:38.832Z,13.70
2017-08-22T02:12:05.128Z,13.60
2017-08-22T02:14:31.443Z,13.40
2017-08-22T02:16:58.215Z,13.40
2017-08-22T02:19:24.535Z,13.20
2017-08-22T02:21:50.856Z,13.20
2017-08-22T02:24:17.140Z,13.20
2017-08-22T02:26:43.421Z,13.10
2017-08-22T02:29:09.743Z,13.30
2017-08-22T02:31:36.039Z,13.40
2017-08-22T02:34:02.327Z,13.40
2017-08-22T02:36:28.652Z,13.40
2017-08-22T02:38:54.954Z,13.40
2017-08-22T02:41:21.264Z,13.30
2017-08-22T02:43:47.532Z,13.30
2017-08-22T02:46:13.853Z,13.20
2017-08-22T02:48:40.178Z,13.20
2017-08-22T02:51:06.464Z,13.10
2017-08-22T02:53:32.785Z,13.00
2017-08-22T02:55:59.147Z,13.00
2017-08-22T02:58:25.449Z,12.90
2017-08-22T03:00:51.775Z,12.90
2017-08-22T03:03:18.055Z,12.90
2017-08-22T03:05:44.392Z,12.80
2017-08-22T03:08:10.675Z,12.80
2017-08-22T03:10:36.972Z,12.80
2017-08-22T03:13:03.272Z,12.70
2017-08-22T03:15:29.528Z,12.70
2017-08-22T03:17:56.004Z,12.70
2017-08-22T03:20:22.293Z,12.60
2017-08-22T03:22:48.584Z,12.70
2017-08-22T03:25:14.904Z,12.70
2017-08-22T03:27:41.220Z,12.60
2017-08-22T03:30:07.540Z,12.60
2017-08-22T03:32:33.840Z,12.60
2017-08-22T03:35:00.160Z,12.50
2017-08-22T03:37:26.680Z,12.40
2017-08-22T03:39:52.956Z,12.40
2017-08-22T03:42:19.263Z,12.30
2017-08-22T03:44:46.185Z,12.40
2017-08-22T03:47:12.455Z,12.40
2017-08-22T03:49:38.731Z,12.40
2017-08-22T03:52:05.035Z,12.40
2017-08-22T03:54:31.351Z,12.30
2017-08-22T03:56:57.656Z,12.30
2017-08-22T03:59:23.951Z,12.30
2017-08-22T04:01:50.247Z,12.20
2017-08-22T04:04:16.544Z,12.20
2017-08-22T04:06:42.864Z,12.20
2017-08-22T04:09:09.155Z,12.20
2017-08-22T04:11:35.424Z,12.10
2017-08-22T04:14:01.744Z,12.10
2017-08-22T04:16:28.035Z,12.10
2017-08-22T04:18:54.336Z,12.10
2017-08-22T04:21:20.644Z,12.10
2017-08-22T04:23:46.936Z,12.10
2017-08-22T04:26:13.269Z,12.10
2017-08-22T04:28:39.532Z,12.10
2017-08-22T04:31:05.870Z,12.10
2017-08-22T04:33:32.377Z,12.10
2017-08-22T04:35:58.660Z,12.10
2017-08-22T04:38:24.980Z,12.20
2017-08-22T04:40:51.296Z,12.20
2017-08-22T04:43:17.613Z,12.30
2017-08-22T04:45:44.003Z,12.40
2017-08-22T04:48:10.357Z,12.60
2017-08-22T04:50:36.656Z,12.80
2017-08-22T04:53:02.987Z,12.90
2017-08-22T04:55:29.256Z,13.10
2017-08-22T04:57:55.543Z,13.20
2017-08-22T05:00:22.008Z,13.20
2017-08-22T05:02:48.344Z,13.30
2017-08-22T05:05:14.677Z,13.40
2017-08-22T05:07:40.973Z,13.50
2017-08-22T05:10:07.328Z,13.80
2017-08-22T05:12:33.639Z,14.20
2017-08-22T05:15:00.071Z,14.70
2017-08-22T05:17:27.132Z,15.90
2017-08-22T05:19:53.396Z,15.90
2017-08-22T05:22:19.744Z,16.60
2017-08-22T05:24:46.084Z,17.30
2017-08-22T05:27:12.407Z,18.00
2017-08-22T05:29:38.728Z,18.50
2017-08-22T05:32:05.016Z,18.60
2017-08-22T05:34:31.334Z,18.60
2017-08-22T05:36:57.728Z,19.10
2017-08-22T05:39:24.033Z,19.80
2017-08-22T05:41:50.336Z,20.50
2017-08-22T05:44:16.696Z,21.20
2017-08-22T05:46:43.020Z,22.00
2017-08-22T05:49:09.373Z,22.80
2017-08-22T05:51:35.685Z,23.50
2017-08-22T05:54:01.988Z,24.20
2017-08-22T05:56:28.336Z,25.00
2017-08-22T05:58:54.640Z,25.60
2017-08-22T06:01:20.931Z,26.20
2017-08-22T06:03:47.234Z,26.90
2017-08-22T06:06:13.565Z,27.30
2017-08-22T06:08:39.859Z,27.50
2017-08-22T06:11:06.371Z,28.00
2017-08-22T06:13:32.745Z,28.60
2017-08-22T06:15:59.068Z,29.40
2017-08-22T06:18:25.688Z,29.80
2017-08-22T06:20:51.997Z,29.90
2017-08-22T06:23:18.300Z,29.20
2017-08-22T06:25:44.594Z,29.40
2017-08-22T06:28:10.884Z,29.70
2017-08-22T06:30:37.200Z,30.00
2017-08-22T06:33:03.511Z,30.50
2017-08-22T06:35:29.845Z,31.20
2017-08-22T06:37:58.180Z,32.00
2017-08-22T06:40:25.245Z,33.10
2017-08-22T06:42:51.557Z,33.00
2017-08-22T06:45:18.627Z,34.70
2017-08-22T06:47:44.895Z,34.70
2017-08-22T06:50:11.202Z,35.50
2017-08-22T06:52:37.487Z,34.90
2017-08-22T06:55:03.803Z,33.90
2017-08-22T06:57:30.114Z,32.90
2017-08-22T06:59:56.451Z,31.70
2017-08-22T07:02:22.762Z,31.00
2017-08-22T07:04:49.055Z,30.10
2017-08-22T07:07:15.372Z,29.60
2017-08-22T07:09:41.668Z,29.60
2017-08-22T07:12:07.988Z,30.40
2017-08-22T07:14:34.256Z,31.00
2017-08-22T07:17:00.575Z,31.40
2017-08-22T07:19:26.879Z,31.60
2017-08-22T07:21:53.171Z,32.00
2017-08-22T07:24:19.491Z,32.30
2017-08-22T07:26:45.771Z,32.20
2017-08-22T07:29:12.075Z,31.80
2017-08-22T07:31:38.379Z,32.10
2017-08-22T07:34:04.672Z,32.70
2017-08-22T07:36:31.023Z,34.40
2017-08-22T07:38:57.368Z,35.80
2017-08-22T07:41:23.649Z,37.00
2017-08-22T07:43:49.979Z,38.00
2017-08-22T07:46:16.319Z,39.10
2017-08-22T07:48:42.657Z,39.80
2017-08-22T07:51:08.965Z,40.00
2017-08-22T07:53:35.235Z,40.60
2017-08-22T07:56:01.598Z,41.30
2017-08-22T07:58:27.979Z,41.90
2017-08-22T08:00:54.356Z,42.50
2017-08-22T08:03:20.733Z,42.80
2017-08-22T08:05:47.049Z,43.00
2017-08-22T08:08:13.320Z,43.50
2017-08-22T08:10:39.657Z,43.60
2017-08-22T08:13:05.971Z,44.00
2017-08-22T08:15:32.304Z,44.20
2017-08-22T08:17:59.362Z,43.90
2017-08-22T08:20:25.661Z,43.90
2017-08-22T08:22:52.081Z,44.60
2017-08-22T08:25:18.429Z,44.80
2017-08-22T08:27:44.724Z,45.10
2017-08-22T08:30:11.080Z,45.40
2017-08-22T08:32:37.411Z,46.10
2017-08-22T08:35:03.695Z,46.40
2017-08-22T08:37:30.024Z,46.30
2017-08-22T08:39:56.472Z,46.60
2017-08-22T08:42:22.775Z,46.50
2017-08-22T08:44:49.093Z,45.40
2017-08-22T08:47:15.392Z,43.80
2017-08-22T08:49:41.723Z,41.90
2017-08-22T08:52:08.087Z,40.40
2017-08-22T08:54:34.384Z,39.90
2017-08-22T08:57:00.750Z,40.80
2017-08-22T08:59:27.047Z,40.70
2017-08-22T09:01:53.320Z,41.60
2017-08-22T09:04:19.632Z,42.30
2017-08-22T09:06:45.949Z,43.20
2017-08-22T09:09:12.283Z,43.60
2017-08-22T09:11:38.618Z,43.90
2017-08-22T09:14:04.944Z,44.20
2017-08-22T09:16:31.316Z,44.00
2017-08-22T09:18:57.576Z,44.30
2017-08-22T09:21:23.904Z,44.40
2017-08-22T09:23:50.219Z,44.40
2017-08-22T09:26:16.547Z,44.10
2017-08-22T09:28:42.900Z,44.20
2017-08-22T09:31:09.203Z,43.30
2017-08-22T09:33:35.497Z,43.10
2017-08-22T09:36:01.783Z,43.20
2017-08-22T09:38:28.128Z,43.10
2017-08-22T09:40:54.831Z,42.60
2017-08-22T09:43:21.116Z,42.30
2017-08-22T09:45:47.434Z,41.90
2017-08-22T09:48:13.737Z,41.20
2017-08-22T09:50:40.036Z,40.80
2017-08-22T09:53:06.356Z,40.10
2017-08-22T09:55:32.648Z,38.70
2017-08-22T09:57:58.944Z,36.90
2017-08-22T10:00:25.260Z,35.00
2017-08-22T10:02:51.527Z,33.40
2017-08-22T10:05:17.836Z,32.20
2017-08-22T10:07:44.108Z,31.10
2017-08-22T10:10:10.428Z,30.10
2017-08-22T10:12:36.744Z,29.40
2017-08-22T10:15:36.804Z,28.90
2017-08-22T10:18:03.109Z,28.50
2017-08-22T10:20:29.380Z,28.00
2017-08-22T10:22:55.672Z,27.40
2017-08-22T10:25:21.975Z,27.10
2017-08-22T10:27:48.355Z,26.80
2017-08-22T10:30:14.663Z,26.70
2017-08-22T10:32:41.000Z,26.40
2017-08-22T10:35:07.304Z,26.30
2017-08-22T10:37:33.589Z,26.30
2017-08-22T10:39:59.912Z,26.30
2017-08-22T10:42:26.188Z,26.30
2017-08-22T10:44:52.572Z,26.30
2017-08-22T10:47:18.888Z,26.40
2017-08-22T10:49:45.199Z,26.30
2017-08-22T10:52:11.643Z,26.30
2017-08-22T10:54:37.979Z,26.40
2017-08-22T10:57:04.272Z,26.40
2017-08-22T10:59:30.580Z,26.40
2017-08-22T11:01:56.900Z,26.50
2017-08-22T11:04:23.196Z,26.60
2017-08-22T11:06:49.532Z,26.70
2017-08-22T11:09:15.819Z,26.70
2017-08-22T11:11:42.148Z,27.00
2017-08-22T11:14:08.537Z,26.90
2017-08-22T11:16:34.837Z,26.90
2017-08-22T11:19:01.124Z,26.90
2017-08-22T11:21:27.396Z,27.00
2017-08-22T11:23:53.664Z,27.00
2017-08-22T11:26:20.036Z,27.20
2017-08-22T11:28:46.392Z,27.00
2017-08-22T11:31:12.787Z,26.90
2017-08-22T11:33:39.095Z,26.80
2017-08-22T11:36:05.405Z,26.60
2017-08-22T11:38:31.746Z,26.60
2017-08-22T11:40:58.055Z,26.70
2017-08-22T11:43:24.427Z,26.70
2017-08-22T11:45:50.708Z,26.60
2017-08-22T11:48:17.046Z,26.60
2017-08-22T11:50:43.330Z,26.50
2017-08-22T11:53:09.637Z,26.70
2017-08-22T11:55:35.947Z,26.80
2017-08-22T11:58:02.340Z,26.80
2017-08-22T12:00:28.660Z,26.70
2017-08-22T12:02:54.948Z,26.50
2017-08-22T12:05:21.404Z,26.40
2017-08-22T12:07:47.737Z,26.60
2017-08-22T12:10:14.060Z,26.80
2017-08-22T12:12:40.377Z,26.80
2017-08-22T12:15:06.948Z,27.00
2017-08-22T12:17:33.244Z,27.20
2017-08-22T12:19:59.540Z,27.50
2017-08-22T12:22:25.863Z,27.70
2017-08-22T12:24:52.199Z,27.90
2017-08-22T12:27:18.519Z,28.00
2017-08-22T12:29:44.839Z,28.20
2017-08-22T12:32:11.141Z,28.30
2017-08-22T12:34:37.424Z,28.30
2017-08-22T12:37:03.752Z,28.20
2017-08-22T12:39:30.049Z,28.00
2017-08-22T12:41:56.347Z,27.70
2017-08-22T12:44:22.847Z,27.70
2017-08-22T12:46:49.205Z,27.30
2017-08-22T12:49:15.504Z,26.90
2017-08-22T12:51:41.835Z,26.90
2017-08-22T12:54:08.128Z,26.80
2017-08-22T12:56:34.475Z,26.50
2017-08-22T12:59:00.815Z,26.50
2017-08-22T13:01:27.137Z,26.30
2017-08-22T13:03:53.440Z,25.90
2017-08-22T13:06:19.712Z,25.60
2017-08-22T13:08:46.028Z,25.50
2017-08-22T13:11:12.296Z,25.50
2017-08-22T13:13:38.607Z,25.40
2017-08-22T13:16:04.903Z,25.40
2017-08-22T13:18:31.207Z,25.30
2017-08-22T13:20:57.492Z,25.30
2017-08-22T13:23:23.784Z,25.30
2017-08-22T13:25:50.063Z,25.10
2017-08-22T13:28:16.364Z,25.00
2017-08-22T13:30:42.673Z,25.10
2017-08-22T13:33:08.979Z,25.30
2017-08-22T13:35:35.303Z,25.30
2017-08-22T13:38:01.612Z,25.30
2017-08-22T13:40:27.891Z,25.30
2017-08-22T13:42:54.203Z,25.30
2017-08-22T13:45:20.511Z,25.30
2017-08-22T13:47:46.823Z,25.20
2017-08-22T13:50:13.863Z,25.20
2017-08-22T13:52:40.172Z,25.10
2017-08-22T13:55:06.492Z,25.20
2017-08-22T13:57:32.768Z,25.10
2017-08-22T13:59:59.072Z,25.10
2017-08-22T14:02:25.348Z,24.90
2017-08-22T14:04:51.648Z,24.90
2017-08-22T14:07:17.954Z,24.80
2017-08-22T14:09:45.015Z,24.70
2017-08-22T14:12:11.350Z,24.70
2017-08-22T14:14:37.617Z,24.50
2017-08-22T14:17:03.943Z,24.30
2017-08-22T14:19:30.240Z,24.40
2017-08-22T14:21:56.696Z,24.30
2017-08-22T14:24:22.979Z,24.30
2017-08-22T14:26:49.270Z,24.40
2017-08-22T14:29:15.580Z,24.50
2017-08-22T14:31:41.896Z,24.60
2017-08-22T14:34:08.191Z,24.70
2017-08-22T14:36:34.467Z,24.80
2017-08-22T14:39:00.799Z,24.90
2017-08-22T14:41:27.080Z,24.80
2017-08-22T14:43:53.353Z,24.70
2017-08-22T14:46:19.675Z,24.80
2017-08-22T14:48:45.952Z,24.80
2017-08-22T14:51:12.305Z,24.80
2017-08-22T14:53:38.608Z,24.80
2017-08-22T14:56:04.924Z,24.80
2017-08-22T14:58:31.268Z,24.80
2017-08-22T15:00:57.567Z,24.80
2017-08-22T15:03:23.922Z,24.80
2017-08-22T15:05:50.422Z,24.70
2017-08-22T15:08:16.707Z,24.70
2017-08-22T15:10:43.028Z,24.70
2017-08-22T15:13:09.340Z,24.60
2017-08-22T15:15:35.664Z,24.70
2017-08-22T15:18:02.005Z,24.60
2017-08-22T15:20:28.386Z,24.50
2017-08-22T15:22:54.685Z,24.50
2017-08-22T15:25:21.009Z,24.40
2017-08-22T15:27:47.561Z,24.30
2017-08-22T15:30:13.912Z,24.20
2017-08-22T15:32:40.280Z,24.10
2017-08-22T15:35:06.571Z,24.10
2017-08-22T15:37:32.929Z,24.10
2017-08-22T15:39:59.213Z,24.00
2017-08-22T15:42:25.536Z,24.00
2017-08-22T15:44:51.861Z,23.90
2017-08-22T15:47:18.176Z,23.90
2017-08-22T15:49:44.509Z,23.90
2017-08-22T15:52:10.805Z,23.80
2017-08-22T15:54:37.137Z,23.80
2017-08-22T15:57:03.407Z,23.70
2017-08-22T15:59:29.876Z,23.60
2017-08-22T16:01:56.185Z,23.50
2017-08-22T16:04:22.642Z,23.50
2017-08-22T16:06:49.048Z,23.40
2017-08-22T16:09:15.378Z,23.40
2017-08-22T16:11:41.721Z,23.30
2017-08-22T16:14:08.004Z,23.30
2017-08-22T16:16:34.357Z,23.30
2017-08-22T16:19:00.726Z,23.30
2017-08-22T16:21:27.061Z,23.30
2017-08-22T16:23:53.372Z,23.20
2017-08-22T16:26:19.640Z,23.10
2017-08-22T16:28:45.970Z,23.00
2017-08-22T16:31:12.472Z,23.00
2017-08-22T16:33:38.780Z,23.00
2017-08-22T16:36:05.103Z,22.90
2017-08-22T16:38:31.404Z,22.80
2017-08-22T16:40:57.732Z,22.90
2017-08-22T16:43:24.104Z,22.80
2017-08-22T16:45:50.442Z,22.80
2017-08-22T16:48:16.774Z,22.70
2017-08-22T16:50:43.087Z,22.70
2017-08-22T16:53:09.445Z,22.60
2017-08-22T16:55:35.788Z,22.50
2017-08-22T16:58:02.156Z,22.40
2017-08-22T17:00:28.682Z,22.30
2017-08-22T17:02:54.982Z,22.30
2017-08-22T17:05:21.288Z,22.10
2017-08-22T17:07:47.624Z,22.10
2017-08-22T17:10:13.987Z,22.00
2017-08-22T17:12:40.309Z,22.00
2017-08-22T17:15:06.586Z,22.00
2017-08-22T17:17:32.901Z,21.90
2017-08-22T17:19:59.216Z,21.90
2017-08-22T17:22:25.584Z,22.00
2017-08-22T17:24:51.932Z,22.10
2017-08-22T17:27:18.330Z,22.00
2017-08-22T17:29:44.681Z,21.80
2017-08-22T17:32:10.961Z,21.70
2017-08-22T17:34:37.277Z,21.60
2017-08-22T17:37:03.632Z,21.50
2017-08-22T17:39:29.956Z,21.40
2017-08-22T17:41:56.276Z,21.40
2017-08-22T17:44:22.656Z,21.50
2017-08-22T17:46:49.033Z,21.50
2017-08-22T17:49:15.328Z,21.40
2017-08-22T17:51:41.636Z,21.40
2017-08-22T17:54:07.940Z,21.30
2017-08-22T17:56:34.319Z,21.30
2017-08-22T17:59:00.645Z,21.30
2017-08-22T18:01:26.947Z,21.30
2017-08-22T18:03:53.296Z,21.40
2017-08-22T18:06:19.608Z,21.30
2017-08-22T18:08:45.913Z,21.30
2017-08-22T18:11:12.229Z,21.20
2017-08-22T18:13:38.503Z,21.20
2017-08-22T18:16:04.836Z,21.00
2017-08-22T18:18:31.184Z,20.90
2017-08-22T18:20:57.564Z,20.90
2017-08-22T18:23:23.865Z,20.80
2017-08-22T18:25:50.161Z,20.70
2017-08-22T18:28:16.489Z,20.60
2017-08-22T18:30:42.824Z,20.60
2017-08-22T18:33:09.145Z,20.50
2017-08-22T18:35:35.466Z,20.40
2017-08-22T18:38:01.824Z,20.30
2017-08-22T18:40:28.231Z,20.20
2017-08-22T18:42:54.545Z,20.10
2017-08-22T18:45:20.856Z,20.10
2017-08-22T18:47:47.169Z,20.00
2017-08-22T18:50:13.503Z,20.10
2017-08-22T18:52:39.816Z,20.10
2017-08-22T18:55:06.170Z,20.10
2017-08-22T18:57:32.532Z,20.00
2017-08-22T18:59:58.989Z,19.90
2017-08-22T19:02:25.305Z,19.90
2017-08-22T19:04:51.601Z,19.90
2017-08-22T19:07:17.951Z,19.90
2017-08-22T19:09:44.284Z,19.80
2017-08-22T19:12:10.659Z,19.70
2017-08-22T19:14:36.953Z,19.70
2017-08-22T19:17:03.245Z,19.80
2017-08-22T19:19:29.594Z,19.80
2017-08-22T19:21:56.023Z,19.70
2017-08-22T19:24:22.311Z,19.70
2017-08-22T19:26:48.616Z,19.70
2017-08-22T19:29:15.002Z,19.60
2017-08-22T19:31:41.321Z,19.60
2017-08-22T19:34:07.660Z,19.60
2017-08-22T19:36:34.042Z,19.60
2017-08-22T19:39:05.532Z,19.60
2017-08-22T19:41:31.892Z,19.50
2017-08-22T19:43:58.244Z,19.50
2017-08-22T19:46:24.589Z,19.50
2017-08-22T19:48:50.931Z,19.40
2017-08-22T19:51:17.236Z,19.30
2017-08-22T19:53:43.733Z,19.20
2017-08-22T19:56:10.115Z,19.20
2017-08-22T19:58:36.454Z,19.20
2017-08-22T20:01:02.757Z,19.00
2017-08-22T20:03:29.100Z,19.00
2017-08-22T20:05:55.648Z,18.80
2017-08-22T20:08:22.008Z,18.60
2017-08-22T20:10:48.499Z,18.40
2017-08-22T20:13:14.823Z,18.20
2017-08-22T20:15:41.168Z,18.10
2017-08-22T20:18:07.484Z,18.00
2017-08-22T20:20:33.824Z,17.90
2017-08-22T20:23:00.164Z,17.80
2017-08-22T20:25:26.472Z,17.70
2017-08-22T20:27:53.604Z,17.60
2017-08-22T20:30:19.897Z,17.60
2017-08-22T20:32:46.226Z,17.50
2017-08-22T20:35:12.533Z,17.60
2017-08-22T20:37:38.867Z,17.50
2017-08-22T20:40:05.226Z,17.50
2017-08-22T20:42:31.535Z,17.40
2017-08-22T20:44:58.007Z,17.30
2017-08-22T20:47:24.356Z,17.20
2017-08-22T20:49:50.675Z,17.20
2017-08-22T20:52:17.023Z,17.10
2017-08-22T20:54:43.335Z,17.10
2017-08-22T20:57:09.656Z,17.10
2017-08-22T20:59:36.736Z,17.20
2017-08-22T21:02:03.058Z,17.20
2017-08-22T21:04:29.416Z,17.20
2017-08-22T21:06:55.732Z,17.20
2017-08-22T21:09:22.097Z,17.10
2017-08-22T21:11:48.399Z,17.10
2017-08-22T21:14:14.837Z,17.10
2017-08-22T21:16:41.180Z,17.10
2017-08-22T21:19:07.520Z,17.00
2017-08-22T21:21:33.884Z,17.00
2017-08-22T21:24:00.188Z,16.90
2017-08-22T21:26:26.485Z,16.90
2017-08-22T21:28:52.785Z,16.90
2017-08-22T21:31:19.152Z,16.80
2017-08-22T21:33:45.488Z,16.80
2017-08-22T21:36:11.816Z,16.70
2017-08-22T21:38:38.183Z,16.60
2017-08-22T21:41:04.460Z,16.60
2017-08-22T21:43:30.800Z,16.50
2017-08-22T21:45:57.137Z,16.50
2017-08-22T21:48:23.468Z,16.50
2017-08-22T21:50:49.820Z,16.40
2017-08-22T21:53:16.152Z,16.40
2017-08-22T21:55:42.660Z,16.40
2017-08-22T21:58:08.975Z,16.40
2017-08-22T22:00:35.313Z,16.40
2017-08-22T22:03:01.612Z,16.50
2017-08-22T22:05:27.936Z,16.50
2017-08-22T22:07:54.206Z,16.50
2017-08-22T22:10:20.559Z,16.60
2017-08-22T22:12:46.904Z,16.60
2017-08-22T22:15:13.209Z,16.60
2017-08-22T22:17:39.528Z,16.60
2017-08-22T22:20:05.828Z,16.80
2017-08-22T22:22:32.119Z,16.80
2017-08-22T22:24:58.452Z,16.80
2017-08-22T22:27:24.791Z,16.70
2017-08-22T22:29:51.147Z,16.70
2017-08-22T22:32:17.437Z,16.70
2017-08-22T22:34:43.739Z,16.70
2017-08-22T22:37:10.036Z,16.70
2017-08-22T22:39:36.363Z,16.70
2017-08-22T22:42:02.652Z,16.60
2017-08-22T22:44:28.964Z,16.60
2017-08-22T22:46:55.268Z,16.60
2017-08-22T22:49:21.628Z,16.50
2017-08-22T22:51:47.929Z,16.50
2017-08-22T22:54:14.269Z,16.60
2017-08-22T22:56:40.597Z,16.60
2017-08-22T22:59:06.895Z,16.50
2017-08-22T23:01:33.203Z,16.50
2017-08-22T23:03:59.516Z,16.40
2017-08-22T23:06:25.807Z,16.40
2017-08-22T23:08:52.090Z,16.40
2017-08-22T23:11:18.417Z,16.40
2017-08-22T23:13:44.671Z,16.30
2017-08-22T23:16:11.001Z,16.30
2017-08-22T23:18:37.360Z,16.20
2017-08-22T23:21:03.657Z,16.10
2017-08-22T23:23:30.228Z,16.10
2017-08-22T23:25:56.573Z,16.00
2017-08-22T23:28:22.886Z,16.00
2017-08-22T23:30:49.176Z,15.90
2017-08-22T23:33:15.471Z,15.90
2017-08-22T23:35:41.796Z,15.90
2017-08-22T23:38:08.215Z,15.80
2017-08-22T23:40:34.568Z,15.70
2017-08-22T23:43:00.881Z,15.70
2017-08-22T23:45:27.251Z,15.60
2017-08-22T23:47:53.559Z,15.60
2017-08-22T23:50:19.832Z,15.50
2017-08-22T23:52:46.163Z,15.50
2017-08-22T23:55:12.468Z,15.50
2017-08-22T23:57:38.784Z,15.50
